createdAt,value
2022-11-24T00:01:19.733Z,27.33
2022-11-24T00:03:52.713Z,20.38
2022-11-24T00:06:19.545Z,20.87
2022-11-24T00:08:47.134Z,23.98
2022-11-24T00:17:05.430Z,16.35
2022-11-24T00:19:32.223Z,14.80
2022-11-24T00:21:59.034Z,18.80
2022-11-24T00:24:26.045Z,14.43
2022-11-24T00:26:52.865Z,17.50
2022-11-24T00:29:19.690Z,14.10
2022-11-24T00:31:46.984Z,14.53
2022-11-24T00:34:15.051Z,14.07
2022-11-24T00:36:42.745Z,15.25
2022-11-24T00:39:15.828Z,16.17
2022-11-24T00:41:43.302Z,9.57
2022-11-24T00:44:10.135Z,9.53
2022-11-24T01:04:07.801Z,13.27
2022-11-24T01:06:36.775Z,11.60
2022-11-24T01:11:57.630Z,11.47
2022-11-24T01:14:25.775Z,10.35
2022-11-24T01:51:34.054Z,10.52
2022-11-24T01:57:04.207Z,9.88
2022-11-24T01:59:31.666Z,21.65
2022-11-24T02:01:58.967Z,20.38
2022-11-24T02:21:13.135Z,15.13
2022-11-24T02:29:25.116Z,12.75
2022-11-24T02:31:59.633Z,18.15
2022-11-24T02:34:26.679Z,12.67
2022-11-24T02:36:53.595Z,11.55
2022-11-24T02:39:20.475Z,12.05
2022-11-24T02:41:53.743Z,12.68
2022-11-24T02:44:24.923Z,12.68
2022-11-24T02:47:02.493Z,16.83
2022-11-24T02:49:29.225Z,14.57
2022-11-24T02:51:56.010Z,13.43
2022-11-24T02:54:22.852Z,15.05
2022-11-24T02:56:49.603Z,16.30
2022-11-24T02:59:16.797Z,12.30
2022-11-24T03:01:43.905Z,13.65
2022-11-24T03:04:10.864Z,13.68
2022-11-24T03:06:38.015Z,13.13
2022-11-24T03:09:05.796Z,15.05
2022-11-24T03:11:33.394Z,12.03
2022-11-24T03:14:00.213Z,12.05
2022-11-24T03:16:27.365Z,12.07
2022-11-24T03:18:54.477Z,15.90
2022-11-24T03:27:11.359Z,12.68
2022-11-24T04:00:40.601Z,17.52
2022-11-24T04:03:07.423Z,14.77
2022-11-24T04:05:35.481Z,14.47
2022-11-24T04:08:03.775Z,13.73
2022-11-24T04:10:32.804Z,16.80
2022-11-24T04:12:59.612Z,20.45
2022-11-24T04:15:26.514Z,19.00
2022-11-24T04:17:55.713Z,19.57
2022-11-24T04:20:23.031Z,17.13
2022-11-24T04:22:51.609Z,16.63
2022-11-24T04:25:18.955Z,19.60
2022-11-24T04:27:45.815Z,20.27
2022-11-24T04:30:13.063Z,13.40
2022-11-24T04:32:39.732Z,17.45
2022-11-24T04:35:07.080Z,18.17
2022-11-24T04:37:34.893Z,23.38
2022-11-24T04:40:02.232Z,17.27
2022-11-24T04:42:28.946Z,23.73
2022-11-24T04:44:56.043Z,20.95
2022-11-24T04:47:25.296Z,22.42
2022-11-24T04:49:52.579Z,17.88
2022-11-24T04:52:20.807Z,25.40
2022-11-24T04:54:48.941Z,14.47
2022-11-24T04:57:17.380Z,16.05
2022-11-24T04:59:44.542Z,20.88
2022-11-24T05:02:12.029Z,14.35
2022-11-24T05:04:39.418Z,15.75
2022-11-24T05:07:06.631Z,18.27
2022-11-24T05:09:58.187Z,18.20
2022-11-24T05:12:20.385Z,20.63
2022-11-24T05:14:47.580Z,19.30
2022-11-24T05:17:14.464Z,18.75
2022-11-24T05:19:41.434Z,20.23
2022-11-24T05:22:08.387Z,17.35
2022-11-24T05:24:35.626Z,20.85
2022-11-24T05:27:02.706Z,42.42
2022-11-24T05:29:29.588Z,25.48
2022-11-24T05:31:56.362Z,19.67
2022-11-24T05:34:24.141Z,24.83
2022-11-24T05:36:51.276Z,66.65
2022-11-24T05:39:18.299Z,50.92
2022-11-24T05:41:48.881Z,32.83
2022-11-24T05:44:20.692Z,27.73
2022-11-24T05:46:59.458Z,20.27
2022-11-24T05:52:19.344Z,18.15
2022-11-24T05:54:54.984Z,19.15
2022-11-24T05:57:24.630Z,18.50
2022-11-24T06:00:19.456Z,14.68
2022-11-24T06:02:48.700Z,19.15
2022-11-24T06:05:19.014Z,14.10
2022-11-24T06:07:53.693Z,14.35
2022-11-24T06:10:25.069Z,12.40
2022-11-24T06:12:52.688Z,13.77
2022-11-24T06:15:20.512Z,16.65
2022-11-24T06:21:12.840Z,20.77
2022-11-24T06:23:40.481Z,16.33
2022-11-24T06:26:07.710Z,18.58
2022-11-24T06:28:34.479Z,24.45
2022-11-24T06:31:03.101Z,34.13
2022-11-24T06:33:34.464Z,29.35
2022-11-24T06:36:06.187Z,29.43
2022-11-24T06:38:34.687Z,25.13
2022-11-24T06:49:43.894Z,27.57
2022-11-24T06:52:10.679Z,26.98
2022-11-24T06:57:12.813Z,34.08
2022-11-24T07:02:26.828Z,30.73
2022-11-24T07:07:26.400Z,24.55
2022-11-24T07:12:37.743Z,27.30
2022-11-24T07:15:04.973Z,33.90
2022-11-24T07:17:31.808Z,31.52
2022-11-24T07:20:00.131Z,22.83
2022-11-24T07:22:26.897Z,17.85
2022-11-24T07:24:53.604Z,18.17
2022-11-24T07:27:20.972Z,19.33
2022-11-24T07:35:16.856Z,38.55
2022-11-24T07:37:44.462Z,11.88
2022-11-24T07:43:06.920Z,28.42
